TAM1878 SBGO-SBCG
Flight info
| Callsign | TAM1878 |
|---|---|
| Flight time | 1h 12m |
| Altitude | 36000 |
| Route | UBSUS UM544 VUROB |
| Aircraft | A320/M-SDE3FGHIRWY/LB1 |
Departure
| Time | 2026-05-05 16:57 |
|---|---|
| Airport | Santa Genoveva International Airport (SBGO) |
Arrival
| Time | 2026-05-05 18:10 |
|---|---|
| Airport | Campo Grande Airport (SBCG) |
| Time | Latitude | Longitude | Altitude | Speed | Heading |
|---|---|---|---|---|---|
| 2026-05-05 16:23 | -16.62839 | -49.21564 | 2463 ft | 0 kts | 88° |
| 2026-05-05 16:49 | -16.62839 | -49.21568 | 2462 ft | 3 kts | 88° |
| 2026-05-05 16:49 | -16.62840 | -49.21596 | 2462 ft | 4 kts | 88° |
| 2026-05-05 16:49 | -16.62841 | -49.21616 | 2463 ft | 4 kts | 98° |
| 2026-05-05 16:49 | -16.62836 | -49.21632 | 2463 ft | 4 kts | 145° |
| 2026-05-05 16:50 | -16.62812 | -49.21639 | 2463 ft | 4 kts | 181° |
| 2026-05-05 16:50 | -16.62797 | -49.21638 | 2463 ft | 0 kts | 186° |
| 2026-05-05 16:53 | -16.62849 | -49.21639 | 2463 ft | 16 kts | 176° |
| 2026-05-05 16:54 | -16.62924 | -49.21695 | 2460 ft | 17 kts | 259° |
| 2026-05-05 16:54 | -16.62957 | -49.21864 | 2454 ft | 29 kts | 257° |
| 2026-05-05 16:54 | -16.62991 | -49.22066 | 2443 ft | 28 kts | 274° |
| 2026-05-05 16:54 | -16.62928 | -49.22244 | 2450 ft | 26 kts | 300° |
| 2026-05-05 16:55 | -16.62844 | -49.22394 | 2455 ft | 22 kts | 300° |
| 2026-05-05 16:55 | -16.62774 | -49.22519 | 2459 ft | 19 kts | 299° |
| 2026-05-05 16:55 | -16.62688 | -49.22674 | 2461 ft | 30 kts | 300° |
| 2026-05-05 16:55 | -16.62585 | -49.22856 | 2458 ft | 30 kts | 300° |
| 2026-05-05 16:56 | -16.62602 | -49.22940 | 2457 ft | 11 kts | 208° |
| 2026-05-05 16:56 | -16.62681 | -49.22973 | 2458 ft | 17 kts | 182° |
| 2026-05-05 16:56 | -16.62765 | -49.22876 | 2461 ft | 21 kts | 120° |
| 2026-05-05 16:56 | -16.62926 | -49.22590 | 2459 ft | 82 kts | 120° |
| 2026-05-05 16:57 | -16.63334 | -49.21861 | 2454 ft | 144 kts | 120° |
| 2026-05-05 16:57 | -16.63865 | -49.20891 | 2977 ft | 158 kts | 119° |
| 2026-05-05 16:57 | -16.64417 | -49.19898 | 3812 ft | 160 kts | 117° |
| 2026-05-05 16:57 | -16.65006 | -49.18850 | 4325 ft | 178 kts | 120° |
| 2026-05-05 16:58 | -16.65671 | -49.17664 | 4713 ft | 203 kts | 119° |
| 2026-05-05 16:58 | -16.66476 | -49.16352 | 5123 ft | 228 kts | 131° |
| 2026-05-05 16:58 | -16.67927 | -49.15517 | 5510 ft | 258 kts | 168° |
| 2026-05-05 16:58 | -16.69755 | -49.15798 | 6188 ft | 280 kts | 204° |
| 2026-05-05 16:59 | -16.71231 | -49.17149 | 7022 ft | 290 kts | 232° |
| 2026-05-05 16:59 | -16.72534 | -49.18780 | 7702 ft | 293 kts | 217° |
| 2026-05-05 16:59 | -16.74368 | -49.19613 | 8428 ft | 289 kts | 186° |
| 2026-05-05 16:59 | -16.76353 | -49.19980 | 9322 ft | 294 kts | 196° |
| 2026-05-05 17:00 | -16.78073 | -49.21167 | 10149 ft | 304 kts | 228° |
| 2026-05-05 17:00 | -16.79185 | -49.23110 | 10616 ft | 325 kts | 244° |
| 2026-05-05 17:00 | -16.80021 | -49.25382 | 10990 ft | 343 kts | 249° |
| 2026-05-05 17:00 | -16.80797 | -49.27772 | 11628 ft | 350 kts | 249° |
| 2026-05-05 17:01 | -16.81639 | -49.30172 | 12364 ft | 353 kts | 248° |
| 2026-05-05 17:01 | -16.82583 | -49.32543 | 13114 ft | 355 kts | 245° |
| 2026-05-05 17:01 | -16.83627 | -49.34901 | 13840 ft | 358 kts | 243° |
| 2026-05-05 17:01 | -16.84736 | -49.37240 | 14458 ft | 361 kts | 242° |
| 2026-05-05 17:02 | -16.85886 | -49.39575 | 15109 ft | 362 kts | 242° |
| 2026-05-05 17:02 | -16.87030 | -49.41883 | 15760 ft | 363 kts | 241° |
| 2026-05-05 17:02 | -16.88201 | -49.44260 | 16408 ft | 364 kts | 242° |
| 2026-05-05 17:02 | -16.89139 | -49.46152 | 16955 ft | 364 kts | 240° |
| 2026-05-05 17:03 | -16.90317 | -49.48497 | 17620 ft | 365 kts | 242° |
| 2026-05-05 17:03 | -16.91448 | -49.50844 | 18247 ft | 368 kts | 242° |
| 2026-05-05 17:03 | -16.92582 | -49.53252 | 18773 ft | 371 kts | 243° |
| 2026-05-05 17:03 | -16.93719 | -49.55681 | 19286 ft | 374 kts | 243° |
| 2026-05-05 17:04 | -16.94869 | -49.58126 | 19806 ft | 376 kts | 242° |
| 2026-05-05 17:04 | -16.96035 | -49.60585 | 20325 ft | 378 kts | 242° |
| 2026-05-05 17:04 | -16.97205 | -49.63034 | 20843 ft | 381 kts | 242° |
| 2026-05-05 17:04 | -16.98394 | -49.65518 | 21323 ft | 384 kts | 242° |
| 2026-05-05 17:05 | -16.99592 | -49.68023 | 21834 ft | 386 kts | 242° |
| 2026-05-05 17:05 | -17.00794 | -49.70537 | 22331 ft | 389 kts | 242° |
| 2026-05-05 17:05 | -17.02005 | -49.73076 | 22827 ft | 391 kts | 242° |
| 2026-05-05 17:05 | -17.03224 | -49.75627 | 23314 ft | 394 kts | 241° |
| 2026-05-05 17:06 | -17.04669 | -49.78063 | 23766 ft | 394 kts | 232° |
| 2026-05-05 17:06 | -17.06330 | -49.80346 | 24179 ft | 396 kts | 231° |
| 2026-05-05 17:06 | -17.07997 | -49.82644 | 24606 ft | 397 kts | 232° |
| 2026-05-05 17:06 | -17.09645 | -49.84923 | 25039 ft | 398 kts | 232° |
| 2026-05-05 17:07 | -17.11333 | -49.87264 | 25477 ft | 399 kts | 232° |
| 2026-05-05 17:07 | -17.12985 | -49.89557 | 25895 ft | 400 kts | 232° |
| 2026-05-05 17:07 | -17.14666 | -49.91888 | 26311 ft | 401 kts | 232° |
| 2026-05-05 17:07 | -17.16348 | -49.94220 | 26749 ft | 403 kts | 232° |
| 2026-05-05 17:08 | -17.18037 | -49.96556 | 27163 ft | 403 kts | 232° |
| 2026-05-05 17:08 | -17.19733 | -49.98907 | 27555 ft | 405 kts | 232° |
| 2026-05-05 17:08 | -17.21435 | -50.01266 | 27952 ft | 406 kts | 232° |
| 2026-05-05 17:08 | -17.23141 | -50.03629 | 28349 ft | 408 kts | 232° |
| 2026-05-05 17:09 | -17.24852 | -50.06002 | 28742 ft | 409 kts | 232° |
| 2026-05-05 17:09 | -17.26569 | -50.08387 | 29131 ft | 411 kts | 232° |
| 2026-05-05 17:09 | -17.28288 | -50.10775 | 29518 ft | 412 kts | 232° |
| 2026-05-05 17:09 | -17.30016 | -50.13176 | 29904 ft | 413 kts | 232° |
| 2026-05-05 17:10 | -17.31748 | -50.15580 | 30251 ft | 415 kts | 232° |
| 2026-05-05 17:10 | -17.33486 | -50.17997 | 30563 ft | 416 kts | 232° |
| 2026-05-05 17:10 | -17.35225 | -50.20422 | 30868 ft | 417 kts | 232° |
| 2026-05-05 17:10 | -17.36706 | -50.22488 | 31109 ft | 418 kts | 232° |
| 2026-05-05 17:11 | -17.38455 | -50.24925 | 31404 ft | 419 kts | 232° |
| 2026-05-05 17:11 | -17.40205 | -50.27364 | 31716 ft | 419 kts | 232° |
| 2026-05-05 17:11 | -17.41935 | -50.29774 | 32143 ft | 417 kts | 231° |
| 2026-05-05 17:11 | -17.43668 | -50.32189 | 32600 ft | 414 kts | 231° |
| 2026-05-05 17:12 | -17.45395 | -50.34592 | 33047 ft | 411 kts | 231° |
| 2026-05-05 17:12 | -17.47120 | -50.36982 | 33517 ft | 408 kts | 231° |
| 2026-05-05 17:12 | -17.48831 | -50.39345 | 33974 ft | 406 kts | 231° |
| 2026-05-05 17:12 | -17.50537 | -50.41700 | 34394 ft | 403 kts | 231° |
| 2026-05-05 17:13 | -17.52232 | -50.44035 | 34730 ft | 402 kts | 231° |
| 2026-05-05 17:13 | -17.53921 | -50.46365 | 35045 ft | 401 kts | 231° |
| 2026-05-05 17:13 | -17.55582 | -50.48660 | 35365 ft | 400 kts | 231° |
| 2026-05-05 17:13 | -17.57259 | -50.50982 | 35676 ft | 399 kts | 231° |
| 2026-05-05 17:14 | -17.58926 | -50.53299 | 35982 ft | 398 kts | 231° |
| 2026-05-05 17:14 | -17.60587 | -50.55616 | 36071 ft | 395 kts | 231° |
| 2026-05-05 17:14 | -17.63857 | -50.60176 | 36091 ft | 389 kts | 231° |
| 2026-05-05 17:15 | -17.67105 | -50.64699 | 36092 ft | 388 kts | 231° |
| 2026-05-05 17:15 | -17.70355 | -50.69224 | 36091 ft | 389 kts | 231° |
| 2026-05-05 17:16 | -17.73615 | -50.73763 | 36105 ft | 389 kts | 231° |
| 2026-05-05 17:16 | -17.76859 | -50.78294 | 36118 ft | 388 kts | 231° |
| 2026-05-05 17:17 | -17.80076 | -50.82801 | 36116 ft | 388 kts | 231° |
| 2026-05-05 17:17 | -17.83314 | -50.87321 | 36108 ft | 387 kts | 231° |
| 2026-05-05 17:18 | -17.86552 | -50.91843 | 36101 ft | 387 kts | 231° |
| 2026-05-05 17:18 | -17.89787 | -50.96367 | 36102 ft | 387 kts | 231° |
| 2026-05-05 17:19 | -17.93029 | -51.00898 | 36103 ft | 387 kts | 231° |
| 2026-05-05 17:19 | -17.96243 | -51.05401 | 36100 ft | 388 kts | 231° |
| 2026-05-05 17:20 | -17.98929 | -51.09170 | 36094 ft | 388 kts | 231° |
| 2026-05-05 17:20 | -18.02158 | -51.13708 | 36099 ft | 388 kts | 231° |
| 2026-05-05 17:21 | -18.05921 | -51.18986 | 36093 ft | 388 kts | 231° |
| 2026-05-05 17:22 | -18.10226 | -51.25035 | 36094 ft | 388 kts | 231° |
| 2026-05-05 17:22 | -18.13458 | -51.29580 | 36094 ft | 388 kts | 231° |
| 2026-05-05 17:23 | -18.16685 | -51.34120 | 36111 ft | 387 kts | 231° |
| 2026-05-05 17:23 | -18.19898 | -51.38652 | 36107 ft | 386 kts | 231° |
| 2026-05-05 17:24 | -18.23117 | -51.43183 | 36109 ft | 386 kts | 231° |
| 2026-05-05 17:24 | -18.26232 | -51.47566 | 36099 ft | 385 kts | 231° |
| 2026-05-05 17:25 | -18.29401 | -51.52036 | 36097 ft | 385 kts | 231° |
| 2026-05-05 17:25 | -18.32596 | -51.56568 | 36093 ft | 385 kts | 232° |
| 2026-05-05 17:26 | -18.35795 | -51.61091 | 36079 ft | 385 kts | 231° |
| 2026-05-05 17:26 | -18.38994 | -51.65627 | 36082 ft | 385 kts | 232° |
| 2026-05-05 17:27 | -18.42188 | -51.70159 | 36082 ft | 385 kts | 232° |
| 2026-05-05 17:27 | -18.45385 | -51.74691 | 36085 ft | 386 kts | 231° |
| 2026-05-05 17:28 | -18.48587 | -51.79234 | 36084 ft | 386 kts | 232° |
| 2026-05-05 17:28 | -18.51787 | -51.83775 | 36074 ft | 386 kts | 232° |
| 2026-05-05 17:29 | -18.54973 | -51.88289 | 36075 ft | 386 kts | 232° |
| 2026-05-05 17:29 | -18.58182 | -51.92838 | 36091 ft | 386 kts | 231° |
| 2026-05-05 17:30 | -18.61378 | -51.97374 | 36097 ft | 385 kts | 231° |
| 2026-05-05 17:30 | -18.64568 | -52.01910 | 36096 ft | 385 kts | 231° |
| 2026-05-05 17:31 | -18.67750 | -52.06443 | 36095 ft | 384 kts | 232° |
| 2026-05-05 17:31 | -18.70933 | -52.10983 | 36089 ft | 384 kts | 232° |
| 2026-05-05 17:32 | -18.74117 | -52.15517 | 36084 ft | 384 kts | 232° |
| 2026-05-05 17:32 | -18.77302 | -52.20049 | 36085 ft | 384 kts | 232° |
| 2026-05-05 17:33 | -18.80483 | -52.24591 | 36079 ft | 384 kts | 232° |
| 2026-05-05 17:33 | -18.83656 | -52.29134 | 36070 ft | 385 kts | 232° |
| 2026-05-05 17:34 | -18.86839 | -52.33681 | 36072 ft | 385 kts | 232° |
| 2026-05-05 17:34 | -18.90008 | -52.38205 | 36068 ft | 385 kts | 232° |
| 2026-05-05 17:35 | -18.93195 | -52.42767 | 36068 ft | 386 kts | 232° |
| 2026-05-05 17:35 | -18.96380 | -52.47335 | 36069 ft | 386 kts | 232° |
| 2026-05-05 17:36 | -18.99560 | -52.51905 | 36078 ft | 385 kts | 232° |
| 2026-05-05 17:36 | -19.02731 | -52.56465 | 36074 ft | 385 kts | 232° |
| 2026-05-05 17:37 | -19.05899 | -52.61030 | 36069 ft | 385 kts | 232° |
| 2026-05-05 17:37 | -19.09077 | -52.65585 | 36068 ft | 385 kts | 232° |
| 2026-05-05 17:38 | -19.12235 | -52.70123 | 36063 ft | 385 kts | 232° |
| 2026-05-05 17:38 | -19.15404 | -52.74692 | 36062 ft | 385 kts | 232° |
| 2026-05-05 17:39 | -19.18577 | -52.79265 | 36058 ft | 385 kts | 232° |
| 2026-05-05 17:39 | -19.21751 | -52.83833 | 36055 ft | 386 kts | 232° |
| 2026-05-05 17:40 | -19.24931 | -52.88416 | 36052 ft | 386 kts | 232° |
| 2026-05-05 17:40 | -19.28108 | -52.92997 | 36052 ft | 386 kts | 232° |
| 2026-05-05 17:41 | -19.31279 | -52.97584 | 36054 ft | 386 kts | 232° |
| 2026-05-05 17:41 | -19.34449 | -53.02166 | 36051 ft | 386 kts | 232° |
| 2026-05-05 17:42 | -19.37628 | -53.06764 | 36049 ft | 387 kts | 232° |
| 2026-05-05 17:42 | -19.40780 | -53.11337 | 36061 ft | 386 kts | 232° |
| 2026-05-05 17:43 | -19.43949 | -53.15925 | 36064 ft | 386 kts | 232° |
| 2026-05-05 17:43 | -19.47114 | -53.20505 | 36066 ft | 385 kts | 232° |
| 2026-05-05 17:44 | -19.50276 | -53.25099 | 36061 ft | 385 kts | 232° |
| 2026-05-05 17:44 | -19.53438 | -53.29694 | 36059 ft | 385 kts | 232° |
| 2026-05-05 17:45 | -19.56575 | -53.34262 | 36054 ft | 385 kts | 232° |
| 2026-05-05 17:45 | -19.59731 | -53.38862 | 36052 ft | 385 kts | 232° |
| 2026-05-05 17:46 | -19.62894 | -53.43461 | 36051 ft | 386 kts | 232° |
| 2026-05-05 17:46 | -19.66058 | -53.48069 | 36043 ft | 386 kts | 232° |
| 2026-05-05 17:47 | -19.69229 | -53.52692 | 36028 ft | 389 kts | 232° |
| 2026-05-05 17:47 | -19.72421 | -53.57351 | 36030 ft | 391 kts | 232° |
| 2026-05-05 17:48 | -19.75627 | -53.62035 | 36038 ft | 393 kts | 232° |
| 2026-05-05 17:48 | -19.78831 | -53.66720 | 35560 ft | 391 kts | 232° |
| 2026-05-05 17:48 | -19.80458 | -53.69097 | 33939 ft | 404 kts | 232° |
| 2026-05-05 17:49 | -19.82120 | -53.71522 | 32117 ft | 417 kts | 233° |
| 2026-05-05 17:49 | -19.83749 | -53.73899 | 30456 ft | 427 kts | 234° |
| 2026-05-05 17:49 | -19.85314 | -53.76193 | 28851 ft | 436 kts | 234° |
| 2026-05-05 17:49 | -19.87034 | -53.78719 | 28072 ft | 430 kts | 234° |
| 2026-05-05 17:50 | -19.88751 | -53.81237 | 27810 ft | 413 kts | 234° |
| 2026-05-05 17:50 | -19.90423 | -53.83686 | 27547 ft | 396 kts | 234° |
| 2026-05-05 17:50 | -19.91995 | -53.85992 | 27144 ft | 386 kts | 234° |
| 2026-05-05 17:50 | -19.93554 | -53.88279 | 26659 ft | 378 kts | 234° |
| 2026-05-05 17:51 | -19.95083 | -53.90522 | 26219 ft | 370 kts | 234° |
| 2026-05-05 17:51 | -19.96580 | -53.92720 | 25777 ft | 363 kts | 234° |
| 2026-05-05 17:51 | -19.98044 | -53.94871 | 25329 ft | 357 kts | 234° |
| 2026-05-05 17:51 | -19.99486 | -53.96993 | 24885 ft | 352 kts | 234° |
| 2026-05-05 17:52 | -20.00911 | -53.99090 | 24430 ft | 347 kts | 234° |
| 2026-05-05 17:52 | -20.02317 | -54.01158 | 23986 ft | 343 kts | 234° |
| 2026-05-05 17:52 | -20.03710 | -54.03204 | 23526 ft | 340 kts | 234° |
| 2026-05-05 17:52 | -20.05083 | -54.05226 | 23045 ft | 335 kts | 234° |
| 2026-05-05 17:53 | -20.06436 | -54.07224 | 22573 ft | 331 kts | 234° |
| 2026-05-05 17:53 | -20.07780 | -54.09193 | 22116 ft | 327 kts | 232° |
| 2026-05-05 17:53 | -20.09301 | -54.10993 | 21661 ft | 324 kts | 227° |
| 2026-05-05 17:53 | -20.10836 | -54.12737 | 21214 ft | 322 kts | 227° |
| 2026-05-05 17:54 | -20.12360 | -54.14474 | 20770 ft | 320 kts | 227° |
| 2026-05-05 17:54 | -20.13871 | -54.16204 | 20341 ft | 318 kts | 227° |
| 2026-05-05 17:54 | -20.15372 | -54.17926 | 19908 ft | 317 kts | 227° |
| 2026-05-05 17:54 | -20.16870 | -54.19643 | 19477 ft | 316 kts | 227° |
| 2026-05-05 17:55 | -20.17832 | -54.20746 | 19203 ft | 315 kts | 227° |
| 2026-05-05 17:55 | -20.18996 | -54.22080 | 18873 ft | 315 kts | 226° |
| 2026-05-05 17:55 | -20.20400 | -54.23688 | 18473 ft | 314 kts | 226° |
| 2026-05-05 17:55 | -20.21285 | -54.24701 | 18202 ft | 314 kts | 226° |
| 2026-05-05 17:56 | -20.22752 | -54.26382 | 17765 ft | 313 kts | 226° |
| 2026-05-05 17:56 | -20.24232 | -54.28078 | 17348 ft | 311 kts | 227° |
| 2026-05-05 17:56 | -20.25702 | -54.29762 | 16940 ft | 310 kts | 227° |
| 2026-05-05 17:56 | -20.27166 | -54.31441 | 16538 ft | 308 kts | 227° |
| 2026-05-05 17:57 | -20.28622 | -54.33113 | 16142 ft | 307 kts | 227° |
| 2026-05-05 17:57 | -20.30070 | -54.34775 | 15752 ft | 306 kts | 227° |
| 2026-05-05 17:57 | -20.31517 | -54.36440 | 15366 ft | 305 kts | 227° |
| 2026-05-05 17:57 | -20.32958 | -54.38100 | 14978 ft | 305 kts | 227° |
| 2026-05-05 17:58 | -20.34391 | -54.39751 | 14592 ft | 304 kts | 227° |
| 2026-05-05 17:58 | -20.35827 | -54.41402 | 14212 ft | 304 kts | 227° |
| 2026-05-05 17:58 | -20.37263 | -54.43056 | 13813 ft | 305 kts | 227° |
| 2026-05-05 17:58 | -20.38705 | -54.44717 | 13376 ft | 305 kts | 228° |
| 2026-05-05 17:59 | -20.40142 | -54.46370 | 13015 ft | 303 kts | 227° |
| 2026-05-05 17:59 | -20.41671 | -54.47900 | 12618 ft | 301 kts | 222° |
| 2026-05-05 17:59 | -20.43228 | -54.49383 | 12225 ft | 299 kts | 223° |
| 2026-05-05 17:59 | -20.44769 | -54.50865 | 11847 ft | 298 kts | 223° |
| 2026-05-05 18:00 | -20.46305 | -54.52344 | 11446 ft | 297 kts | 224° |
| 2026-05-05 18:00 | -20.47822 | -54.53810 | 11056 ft | 296 kts | 223° |
| 2026-05-05 18:00 | -20.49340 | -54.55278 | 10647 ft | 295 kts | 223° |
| 2026-05-05 18:00 | -20.50860 | -54.56748 | 10240 ft | 295 kts | 224° |
| 2026-05-05 18:01 | -20.52382 | -54.58220 | 9802 ft | 295 kts | 224° |
| 2026-05-05 18:01 | -20.53901 | -54.59688 | 9355 ft | 293 kts | 224° |
| 2026-05-05 18:01 | -20.55406 | -54.61142 | 8915 ft | 292 kts | 223° |
| 2026-05-05 18:01 | -20.56913 | -54.62593 | 8468 ft | 291 kts | 223° |
| 2026-05-05 18:02 | -20.58413 | -54.64038 | 8010 ft | 289 kts | 223° |
| 2026-05-05 18:02 | -20.59905 | -54.65475 | 7525 ft | 289 kts | 223° |
| 2026-05-05 18:02 | -20.61392 | -54.66908 | 7071 ft | 287 kts | 223° |
| 2026-05-05 18:02 | -20.62877 | -54.68344 | 6589 ft | 287 kts | 224° |
| 2026-05-05 18:03 | -20.64352 | -54.69780 | 6087 ft | 285 kts | 227° |
| 2026-05-05 18:03 | -20.65352 | -54.71521 | 5902 ft | 267 kts | 258° |
| 2026-05-05 18:03 | -20.65422 | -54.73402 | 5822 ft | 243 kts | 287° |
| 2026-05-05 18:03 | -20.64743 | -54.74923 | 5720 ft | 213 kts | 313° |
| 2026-05-05 18:04 | -20.63823 | -54.75994 | 5652 ft | 185 kts | 315° |
| 2026-05-05 18:04 | -20.63015 | -54.76940 | 5549 ft | 156 kts | 316° |
| 2026-05-05 18:04 | -20.62337 | -54.77735 | 5466 ft | 143 kts | 315° |
| 2026-05-05 18:04 | -20.61674 | -54.78508 | 5323 ft | 139 kts | 316° |
| 2026-05-05 18:05 | -20.60928 | -54.79140 | 5217 ft | 137 kts | 338° |
| 2026-05-05 18:05 | -20.59995 | -54.79332 | 5130 ft | 140 kts | 2° |
| 2026-05-05 18:05 | -20.59063 | -54.79018 | 4822 ft | 144 kts | 31° |
| 2026-05-05 18:05 | -20.58306 | -54.78312 | 4524 ft | 144 kts | 39° |
| 2026-05-05 18:06 | -20.57580 | -54.77611 | 4290 ft | 138 kts | 39° |
| 2026-05-05 18:06 | -20.57339 | -54.77379 | 4224 ft | 139 kts | 39° |
| 2026-05-05 18:06 | -20.56377 | -54.76450 | 3979 ft | 138 kts | 40° |
| 2026-05-05 18:06 | -20.55436 | -54.75541 | 3738 ft | 137 kts | 38° |
| 2026-05-05 18:07 | -20.54960 | -54.75082 | 3627 ft | 139 kts | 40° |
| 2026-05-05 18:07 | -20.54238 | -54.74384 | 3453 ft | 137 kts | 39° |
| 2026-05-05 18:07 | -20.53536 | -54.73707 | 3275 ft | 138 kts | 39° |
| 2026-05-05 18:07 | -20.52819 | -54.73014 | 3107 ft | 137 kts | 40° |
| 2026-05-05 18:08 | -20.52108 | -54.72329 | 2911 ft | 142 kts | 40° |
| 2026-05-05 18:08 | -20.51392 | -54.71637 | 2759 ft | 139 kts | 40° |
| 2026-05-05 18:08 | -20.50680 | -54.70950 | 2596 ft | 137 kts | 38° |
| 2026-05-05 18:08 | -20.49968 | -54.70264 | 2421 ft | 140 kts | 39° |
| 2026-05-05 18:09 | -20.49242 | -54.69563 | 2248 ft | 138 kts | 38° |
| 2026-05-05 18:09 | -20.48534 | -54.68878 | 2053 ft | 139 kts | 39° |
| 2026-05-05 18:09 | -20.47817 | -54.68185 | 1872 ft | 139 kts | 38° |
| 2026-05-05 18:09 | -20.47150 | -54.67547 | 1837 ft | 110 kts | 42° |
| 2026-05-05 18:10 | -20.46713 | -54.67121 | 1839 ft | 61 kts | 42° |
| 2026-05-05 18:10 | -20.46440 | -54.66860 | 1837 ft | 49 kts | 43° |
| 2026-05-05 18:10 | -20.46205 | -54.66634 | 1837 ft | 42 kts | 41° |
| 2026-05-05 18:10 | -20.46098 | -54.66621 | 1839 ft | 14 kts | 335° |
| 2026-05-05 18:11 | -20.46004 | -54.66662 | 1839 ft | 15 kts | 339° |
| 2026-05-05 18:11 | -20.45925 | -54.66694 | 1839 ft | 9 kts | 339° |
| 2026-05-05 18:11 | -20.45860 | -54.66720 | 1839 ft | 9 kts | 340° |
| 2026-05-05 18:11 | -20.45836 | -54.66751 | 1839 ft | 0 kts | 281° |
| 2026-05-05 18:12 | -20.45826 | -54.66775 | 1839 ft | 4 kts | 316° |
| 2026-05-05 18:13 | -20.45795 | -54.66778 | 1839 ft | 5 kts | 355° |
| 2026-05-05 18:13 | -20.45784 | -54.66780 | 1839 ft | 1 kts | 353° |
| 2026-05-05 18:13 | -20.45783 | -54.66780 | 1839 ft | 0 kts | 353° |